Time;durP1;ratioP1;P1;durP2;ratioP2;P2;SDS_P1;SDS_P2;PMS_P1;PMS_P2;Temp;Humidity;BMP_temperature;BMP_pressure;BME280_temperature;BME280_humidity;BME280_pressure;Samples;Min_cycle;Max_cycle;Signal;HPM_P1;HPM_P2
2024/04/11 00:02:07;;;;;;;12.15;6.97;;;;;;;;;;5486705;26;20002;-55
2024/04/11 00:04:33;;;;;;;9.80;6.03;;;;;;;;;;5486768;26;19994;-57
2024/04/11 00:07:02;;;;;;;9.82;6.45;;;;;;;;;;5486379;26;20754;-59
2024/04/11 00:09:28;;;;;;;10.15;6.07;;;;;;;;;;5486087;26;20002;-58
2024/04/11 00:11:57;;;;;;;10.23;6.80;;;;;;;;;;5486316;26;20074;-57
2024/04/11 00:14:25;;;;;;;10.25;6.05;;;;;;;;;;5486329;26;20074;-56
2024/04/11 00:16:54;;;;;;;9.18;5.63;;;;;;;;;;5486385;26;20461;-56
2024/04/11 00:19:20;;;;;;;20.63;10.82;;;;;;;;;;5486531;26;20048;-57
2024/04/11 00:21:49;;;;;;;29.77;17.15;;;;;;;;;;5486169;26;19998;-56
2024/04/11 00:24:16;;;;;;;16.17;9.82;;;;;;;;;;5485953;26;20480;-59
2024/04/11 00:26:46;;;;;;;10.65;6.60;;;;;;;;;;5486035;26;20384;-57
2024/04/11 00:29:12;;;;;;;9.48;6.00;;;;;;;;;;5486088;26;20006;-59
2024/04/11 00:31:43;;;;;;;11.82;6.00;;;;;;;;;;5485909;26;20307;-58
2024/04/11 00:34:16;;;;;;;9.82;5.80;;;;;;;;;;5449276;26;20014;-55
2024/04/11 00:36:45;;;;;;;10.55;6.68;;;;;;;;;;5449234;26;20034;-59
2024/04/11 00:39:17;;;;;;;8.88;6.10;;;;;;;;;;5449363;26;20075;-56
2024/04/11 00:41:46;;;;;;;10.98;6.20;;;;;;;;;;5452132;26;20104;-57
2024/04/11 00:44:12;;;;;;;9.48;5.50;;;;;;;;;;5489431;26;20454;-54
2024/04/11 00:46:43;;;;;;;9.10;6.20;;;;;;;;;;5489232;26;20010;-58
2024/04/11 00:49:10;;;;;;;12.45;6.13;;;;;;;;;;5489345;26;20078;-58
2024/04/11 00:51:40;;;;;;;11.25;6.22;;;;;;;;;;5489345;26;20017;-58
2024/04/11 00:54:06;;;;;;;10.68;5.80;;;;;;;;;;5489020;26;19998;-59
2024/04/11 00:56:35;;;;;;;9.88;5.50;;;;;;;;;;5489323;26;20496;-59
2024/04/11 00:59:01;;;;;;;9.38;6.40;;;;;;;;;;5489652;26;20017;-60
2024/04/11 01:01:30;;;;;;;10.40;6.38;;;;;;;;;;5489663;26;20002;-58
2024/04/11 01:04:00;;;;;;;11.00;6.90;;;;;;;;;;5489576;26;20087;-57
2024/04/11 01:06:29;;;;;;;9.07;6.63;;;;;;;;;;5487064;26;20018;-56
2024/04/11 01:08:57;;;;;;;9.65;6.88;;;;;;;;;;5487877;26;19998;-57
2024/04/11 01:11:29;;;;;;;7.93;6.43;;;;;;;;;;5489519;26;20522;-54
2024/04/11 01:13:55;;;;;;;9.57;5.78;;;;;;;;;;5490095;26;20069;-55
2024/04/11 01:16:25;;;;;;;10.27;5.88;;;;;;;;;;5489188;26;20010;-56
2024/04/11 01:18:56;;;;;;;11.07;5.97;;;;;;;;;;5482003;26;20443;-58
2024/04/11 01:21:27;;;;;;;10.15;6.10;;;;;;;;;;5478869;26;20134;-57
2024/04/11 01:23:56;;;;;;;8.32;5.50;;;;;;;;;;5488051;26;20013;-53
2024/04/11 01:26:25;;;;;;;8.93;5.72;;;;;;;;;;5475379;26;20070;-52
2024/04/11 01:28:52;;;;;;;9.25;5.88;;;;;;;;;;5480947;26;20010;-57
2024/04/11 01:31:20;;;;;;;9.75;5.90;;;;;;;;;;5486429;26;20022;-55
2024/04/11 01:33:46;;;;;;;9.68;6.07;;;;;;;;;;5487916;26;20006;-52
2024/04/11 01:36:16;;;;;;;7.70;5.32;;;;;;;;;;5487143;26;20402;-54
2024/04/11 01:38:45;;;;;;;9.55;6.32;;;;;;;;;;5488808;26;20002;-51
2024/04/11 01:41:16;;;;;;;16.20;6.90;;;;;;;;;;5488678;26;19998;-53
2024/04/11 01:43:42;;;;;;;10.23;6.55;;;;;;;;;;5488920;26;19999;-56
2024/04/11 01:46:15;;;;;;;8.70;6.22;;;;;;;;;;5488746;26;19998;-57
2024/04/11 01:48:41;;;;;;;8.73;5.55;;;;;;;;;;5488695;26;20002;-54
2024/04/11 01:51:10;;;;;;;10.60;6.57;;;;;;;;;;5473560;26;20009;-53
2024/04/11 01:53:37;;;;;;;8.93;6.28;;;;;;;;;;5488206;26;20048;-56
2024/04/11 01:56:06;;;;;;;10.32;5.90;;;;;;;;;;5487149;26;20567;-57
2024/04/11 01:58:35;;;;;;;10.65;5.93;;;;;;;;;;5478516;26;20003;-56
2024/04/11 02:01:09;;;;;;;9.63;6.15;;;;;;;;;;5486673;26;20002;-58
2024/04/11 02:03:38;;;;;;;10.50;6.63;;;;;;;;;;5473225;26;20007;-61
2024/04/11 02:06:07;;;;;;;8.23;5.85;;;;;;;;;;5478502;26;20013;-55
2024/04/11 02:08:33;;;;;;;8.40;5.60;;;;;;;;;;5480634;26;20021;-55
2024/04/11 02:11:03;;;;;;;8.43;6.15;;;;;;;;;;5483838;26;20038;-51
2024/04/11 02:13:28;;;;;;;9.80;5.97;;;;;;;;;;5486758;26;20002;-52
2024/04/11 02:16:00;;;;;;;10.57;6.35;;;;;;;;;;5486290;26;20009;-51
2024/04/11 02:18:27;;;;;;;9.85;5.70;;;;;;;;;;5488213;26;20039;-52
2024/04/11 02:20:56;;;;;;;10.27;6.07;;;;;;;;;;5487872;26;19998;-56
2024/04/11 02:23:22;;;;;;;11.18;6.70;;;;;;;;;;5487744;26;20010;-53
2024/04/11 02:25:51;;;;;;;10.45;6.82;;;;;;;;;;5487450;26;20371;-53
2024/04/11 02:28:19;;;;;;;9.98;6.93;;;;;;;;;;5481592;26;20009;-55
2024/04/11 02:30:48;;;;;;;11.00;6.78;;;;;;;;;;5465887;26;20047;-57
2024/04/11 02:33:16;;;;;;;9.35;6.57;;;;;;;;;;5471576;26;20017;-54
2024/04/11 02:35:45;;;;;;;11.10;7.68;;;;;;;;;;5485126;26;20074;-56
2024/04/11 02:38:11;;;;;;;10.23;6.47;;;;;;;;;;5485868;26;20462;-53
2024/04/11 02:40:39;;;;;;;9.55;7.05;;;;;;;;;;5485837;26;20006;-51
2024/04/11 02:43:08;;;;;;;10.20;7.15;;;;;;;;;;5487195;26;20010;-52
2024/04/11 02:45:37;;;;;;;10.68;6.72;;;;;;;;;;5487330;26;20017;-55
2024/04/11 02:48:06;;;;;;;11.35;6.85;;;;;;;;;;5487406;26;20385;-54
2024/04/11 02:50:35;;;;;;;12.00;7.15;;;;;;;;;;5487258;26;20047;-52
2024/04/11 02:53:03;;;;;;;9.80;6.85;;;;;;;;;;5487042;26;20005;-54
2024/04/11 02:55:31;;;;;;;10.65;6.97;;;;;;;;;;5486753;26;20074;-53
2024/04/11 02:58:00;;;;;;;12.27;7.55;;;;;;;;;;5486805;26;20002;-55
2024/04/11 03:00:27;;;;;;;12.02;7.15;;;;;;;;;;5487193;26;20014;-52
2024/04/11 03:02:55;;;;;;;12.35;7.07;;;;;;;;;;5486222;26;20078;-54
2024/04/11 03:05:22;;;;;;;12.90;7.35;;;;;;;;;;5486633;26;20326;-52
2024/04/11 03:07:54;;;;;;;13.30;7.55;;;;;;;;;;5487018;26;20006;-54
2024/04/11 03:10:20;;;;;;;10.57;7.07;;;;;;;;;;5487407;26;20006;-56
2024/04/11 03:12:49;;;;;;;11.48;7.07;;;;;;;;;;5487053;26;20018;-57
2024/04/11 03:15:18;;;;;;;10.02;7.18;;;;;;;;;;5486930;26;20009;-53
2024/04/11 03:17:48;;;;;;;12.43;8.77;;;;;;;;;;5487155;26;19998;-57
2024/04/11 03:20:17;;;;;;;11.75;7.78;;;;;;;;;;5486917;26;20434;-56
2024/04/11 03:22:46;;;;;;;10.77;7.35;;;;;;;;;;5487378;26;20338;-55
2024/04/11 03:25:14;;;;;;;12.55;7.80;;;;;;;;;;5486832;26;20004;-53
2024/04/11 03:27:43;;;;;;;11.93;8.23;;;;;;;;;;5487172;26;20438;-56
2024/04/11 03:30:10;;;;;;;11.65;7.53;;;;;;;;;;5472676;26;20009;-54
2024/04/11 03:32:38;;;;;;;11.30;7.53;;;;;;;;;;5486192;26;20070;-55
2024/04/11 03:35:08;;;;;;;10.23;7.20;;;;;;;;;;5475466;26;20406;-52
2024/04/11 03:37:36;;;;;;;13.40;8.55;;;;;;;;;;5478138;26;19998;-57
2024/04/11 03:40:03;;;;;;;10.88;7.10;;;;;;;;;;5486527;26;20797;-54
2024/04/11 03:42:36;;;;;;;12.80;7.80;;;;;;;;;;5486071;26;20002;-53
2024/04/11 03:45:11;;;;;;;13.55;8.43;;;;;;;;;;5486630;26;20428;-56
2024/04/11 03:47:38;;;;;;;14.10;8.55;;;;;;;;;;5486690;26;19998;-54
2024/04/11 03:50:07;;;;;;;12.13;7.93;;;;;;;;;;5486165;26;19998;-53
2024/04/11 03:52:33;;;;;;;10.98;7.18;;;;;;;;;;5485949;26;20021;-56
2024/04/11 03:55:02;;;;;;;11.93;7.80;;;;;;;;;;5486248;26;19999;-54
2024/04/11 03:57:28;;;;;;;12.93;7.32;;;;;;;;;;5486509;26;20009;-56
2024/04/11 03:59:59;;;;;;;13.35;7.80;;;;;;;;;;5486318;26;20372;-52
2024/04/11 04:02:25;;;;;;;11.43;7.85;;;;;;;;;;5479085;26;20088;-56
2024/04/11 04:04:53;;;;;;;11.38;7.57;;;;;;;;;;5485911;26;20006;-53
2024/04/11 04:07:19;;;;;;;12.93;8.13;;;;;;;;;;5486103;26;20006;-55
2024/04/11 04:09:48;;;;;;;12.57;8.70;;;;;;;;;;5486063;26;20013;-58
2024/04/11 04:12:16;;;;;;;13.38;8.65;;;;;;;;;;5486115;26;20051;-53
2024/04/11 04:14:45;;;;;;;15.45;8.35;;;;;;;;;;5486625;26;20002;-55
2024/04/11 04:17:16;;;;;;;12.35;7.90;;;;;;;;;;5487022;26;20009;-52
2024/04/11 04:19:44;;;;;;;12.82;7.82;;;;;;;;;;5487111;26;20603;-53
2024/04/11 04:22:13;;;;;;;12.02;7.82;;;;;;;;;;5484207;26;20353;-56
2024/04/11 04:24:42;;;;;;;13.57;8.45;;;;;;;;;;5489257;26;20466;-53
2024/04/11 04:27:07;;;;;;;11.95;7.78;;;;;;;;;;5485241;26;20002;-57
2024/04/11 04:29:37;;;;;;;11.60;7.72;;;;;;;;;;5489807;26;20364;-52
2024/04/11 04:32:04;;;;;;;17.33;8.73;;;;;;;;;;5489474;26;20027;-54
2024/04/11 04:34:35;;;;;;;13.65;8.60;;;;;;;;;;5487868;26;20014;-56
2024/04/11 04:37:01;;;;;;;12.48;8.20;;;;;;;;;;5489121;26;20002;-56
2024/04/11 04:39:41;;;;;;;14.25;8.10;;;;;;;;;;5489417;26;20008;-57
2024/04/11 04:42:07;;;;;;;13.02;8.68;;;;;;;;;;5459883;26;19999;-56
2024/04/11 04:44:37;;;;;;;13.75;8.30;;;;;;;;;;5488843;26;20013;-54
2024/04/11 04:47:15;;;;;;;14.38;8.48;;;;;;;;;;5489390;26;20473;-57
2024/04/11 04:49:48;;;;;;;12.50;9.05;;;;;;;;;;5489556;26;19998;-54
2024/04/11 04:52:14;;;;;;;12.95;7.90;;;;;;;;;;5489187;26;20071;-57
2024/04/11 04:54:44;;;;;;;12.27;7.95;;;;;;;;;;5488690;26;20403;-54
2024/04/11 04:57:11;;;;;;;12.45;8.30;;;;;;;;;;5488826;26;20005;-54
2024/04/11 04:59:41;;;;;;;14.95;8.38;;;;;;;;;;5488722;26;20241;-58
2024/04/11 05:02:09;;;;;;;13.80;9.45;;;;;;;;;;5488584;26;19994;-54
2024/04/11 05:04:39;;;;;;;12.40;8.60;;;;;;;;;;5489041;26;20030;-59
2024/04/11 05:07:08;;;;;;;13.48;9.48;;;;;;;;;;5489146;26;20002;-55
2024/04/11 05:09:38;;;;;;;14.50;8.65;;;;;;;;;;5489647;26;19994;-58
2024/04/11 05:12:04;;;;;;;10.80;8.37;;;;;;;;;;5489213;26;20372;-58
2024/04/11 05:14:38;;;;;;;11.88;7.80;;;;;;;;;;5488927;26;20227;-56
2024/04/11 05:17:08;;;;;;;13.35;7.70;;;;;;;;;;5488209;26;20006;-56
2024/04/11 05:19:36;;;;;;;14.40;8.23;;;;;;;;;;5489302;26;20001;-57
2024/04/11 05:22:04;;;;;;;14.70;8.02;;;;;;;;;;5489185;26;20462;-56
2024/04/11 05:24:35;;;;;;;13.32;8.25;;;;;;;;;;5488596;26;19994;-58
2024/04/11 05:27:01;;;;;;;13.68;8.48;;;;;;;;;;5488082;26;20458;-57
2024/04/11 05:29:30;;;;;;;16.42;8.38;;;;;;;;;;5488845;26;20006;-55
2024/04/11 05:31:56;;;;;;;12.35;8.23;;;;;;;;;;5488858;26;20042;-58
2024/04/11 05:34:26;;;;;;;12.57;8.60;;;;;;;;;;5488750;26;20016;-57
2024/04/11 05:36:54;;;;;;;11.82;8.93;;;;;;;;;;5487503;26;20073;-56
2024/04/11 05:39:23;;;;;;;13.07;8.60;;;;;;;;;;5488690;26;20034;-56
2024/04/11 05:41:52;;;;;;;15.45;9.18;;;;;;;;;;5488720;26;20010;-58
2024/04/11 05:44:20;;;;;;;13.80;9.10;;;;;;;;;;5488408;26;20017;-56
2024/04/11 05:46:49;;;;;;;15.20;9.13;;;;;;;;;;5488281;26;20461;-58
2024/04/11 05:49:16;;;;;;;14.80;9.20;;;;;;;;;;5488816;26;20010;-58
2024/04/11 05:51:45;;;;;;;17.23;9.27;;;;;;;;;;5488705;26;20047;-55
2024/04/11 05:54:11;;;;;;;12.52;8.90;;;;;;;;;;5452008;26;20450;-55
2024/04/11 05:56:39;;;;;;;14.32;9.90;;;;;;;;;;5465381;26;20009;-58
2024/04/11 05:59:08;;;;;;;13.82;9.63;;;;;;;;;;5488506;26;20078;-58
2024/04/11 06:01:40;;;;;;;14.02;9.32;;;;;;;;;;5488706;26;20006;-58
2024/04/11 06:04:06;;;;;;;14.00;9.57;;;;;;;;;;5488060;26;19998;-58
2024/04/11 06:06:35;;;;;;;13.75;8.63;;;;;;;;;;5487994;26;20138;-58
2024/04/11 06:09:01;;;;;;;12.60;8.88;;;;;;;;;;5488585;26;20009;-56
2024/04/11 06:11:29;;;;;;;13.27;9.38;;;;;;;;;;5488004;26;20010;-55
2024/04/11 06:13:55;;;;;;;15.38;10.13;;;;;;;;;;5485167;26;20099;-55
2024/04/11 06:16:27;;;;;;;16.50;9.80;;;;;;;;;;5472693;26;20512;-53
2024/04/11 06:18:54;;;;;;;16.58;9.73;;;;;;;;;;5483282;26;20481;-56
2024/04/11 06:21:32;;;;;;;14.60;9.40;;;;;;;;;;5481772;26;20002;-58
2024/04/11 06:23:59;;;;;;;15.20;9.60;;;;;;;;;;5487430;26;20002;-56
2024/04/11 06:26:27;;;;;;;14.70;9.98;;;;;;;;;;5487124;26;20476;-56
2024/04/11 06:28:54;;;;;;;14.90;9.82;;;;;;;;;;5486517;26;20380;-57
2024/04/11 06:31:24;;;;;;;12.13;8.57;;;;;;;;;;5482391;26;20003;-57
2024/04/11 06:33:54;;;;;;;13.15;9.65;;;;;;;;;;5476171;26;20531;-55
2024/04/11 06:36:23;;;;;;;13.40;9.43;;;;;;;;;;5479730;26;19998;-52
2024/04/11 06:38:51;;;;;;;14.52;9.10;;;;;;;;;;5484479;26;20009;-58
2024/04/11 06:41:22;;;;;;;15.00;8.80;;;;;;;;;;5484524;26;20091;-56
2024/04/11 06:43:49;;;;;;;15.48;10.00;;;;;;;;;;5467424;26;20442;-58
2024/04/11 06:46:18;;;;;;;12.77;8.80;;;;;;;;;;5485891;26;20002;-58
2024/04/11 06:48:45;;;;;;;12.15;8.48;;;;;;;;;;5484934;26;20014;-58
2024/04/11 06:51:19;;;;;;;14.15;9.13;;;;;;;;;;5477160;26;20411;-56
2024/04/11 06:53:46;;;;;;;13.02;10.30;;;;;;;;;;5485856;26;20013;-56
2024/04/11 06:56:17;;;;;;;14.82;9.63;;;;;;;;;;5475359;26;20013;-56
2024/04/11 06:58:46;;;;;;;14.43;9.15;;;;;;;;;;5487072;26;20002;-58
2024/04/11 07:01:16;;;;;;;15.23;7.80;;;;;;;;;;5472879;26;20010;-54
2024/04/11 07:03:43;;;;;;;12.30;7.85;;;;;;;;;;5486251;26;20454;-55
2024/04/11 07:06:22;;;;;;;13.48;8.15;;;;;;;;;;5472448;26;20009;-58
2024/04/11 07:08:52;;;;;;;17.42;8.75;;;;;;;;;;5487364;26;19998;-58
2024/04/11 07:11:27;;;;;;;13.93;8.38;;;;;;;;;;5487081;26;19994;-56
2024/04/11 07:13:54;;;;;;;11.57;7.82;;;;;;;;;;5478096;26;20076;-58
2024/04/11 07:16:26;;;;;;;14.20;8.48;;;;;;;;;;5456110;26;20007;-57
2024/04/11 07:18:54;;;;;;;12.18;8.25;;;;;;;;;;5477003;26;20338;-55
2024/04/11 07:21:25;;;;;;;10.50;7.15;;;;;;;;;;5476826;26;20002;-57
2024/04/11 07:23:54;;;;;;;;;;;;;;;;;;5485586;26;19998;-57
2024/04/11 07:26:22;;;;;;;11.38;7.45;;;;;;;;;;5486788;26;20444;-57
2024/04/11 07:28:49;;;;;;;12.05;7.32;;;;;;;;;;5485425;26;20032;-55
2024/04/11 07:31:19;;;;;;;10.45;6.15;;;;;;;;;;5483498;26;20002;-58
2024/04/11 07:33:48;;;;;;;10.10;6.28;;;;;;;;;;5468802;26;20078;-56
2024/04/11 07:36:21;;;;;;;11.32;6.85;;;;;;;;;;5468546;26;20033;-58
2024/04/11 07:38:48;;;;;;;10.98;6.53;;;;;;;;;;5470032;26;20017;-58
2024/04/11 07:41:23;;;;;;;9.05;6.15;;;;;;;;;;5466617;26;20002;-57
2024/04/11 07:43:51;;;;;;;9.60;6.15;;;;;;;;;;5486524;26;20038;-58
2024/04/11 07:46:22;;;;;;;10.45;6.93;;;;;;;;;;5477803;26;20028;-58
2024/04/11 07:48:48;;;;;;;;;;;;;;;;;;5484531;26;20017;-58
2024/04/11 07:51:17;;;;;;;10.27;5.55;;;;;;;;;;5480816;26;20355;-57
2024/04/11 07:53:46;;;;;;;10.38;6.40;;;;;;;;;;5489994;26;20001;-59
2024/04/11 07:56:20;;;;;;;10.50;6.43;;;;;;;;;;5480724;26;19998;-54
2024/04/11 07:58:47;;;;;;;11.00;6.70;;;;;;;;;;5479558;26;20335;-53
2024/04/11 08:01:16;;;;;;;11.48;6.03;;;;;;;;;;5476553;26;19998;-58
2024/04/11 08:03:43;;;;;;;10.30;5.60;;;;;;;;;;5485897;26;19998;-57
2024/04/11 08:06:11;;;;;;;10.02;6.38;;;;;;;;;;5481593;26;20049;-58
2024/04/11 08:08:37;;;;;;;10.20;6.85;;;;;;;;;;5481840;26;20071;-57
2024/04/11 08:11:06;;;;;;;10.90;6.35;;;;;;;;;;5489799;26;20096;-58
2024/04/11 08:13:35;;;;;;;10.70;5.63;;;;;;;;;;5488407;26;20033;-58
2024/04/11 08:16:04;;;;;;;11.07;6.25;;;;;;;;;;5482515;26;19998;-58
2024/04/11 08:18:31;;;;;;;8.88;6.10;;;;;;;;;;5486787;26;20002;-59
2024/04/11 08:20:59;;;;;;;10.13;6.07;;;;;;;;;;5489776;26;20407;-57
2024/04/11 08:23:25;;;;;;;10.30;5.55;;;;;;;;;;5489268;26;20006;-58
2024/04/11 08:25:55;;;;;;;9.25;5.95;;;;;;;;;;5477316;26;20021;-53
2024/04/11 08:28:21;;;;;;;11.23;6.38;;;;;;;;;;5484269;26;20017;-59
2024/04/11 08:30:54;;;;;;;9.05;5.75;;;;;;;;;;5473158;26;20454;-62
2024/04/11 08:33:20;;;;;;;10.52;6.07;;;;;;;;;;5481083;26;20006;-60
2024/04/11 08:35:52;;;;;;;7.78;5.68;;;;;;;;;;5477269;26;20021;-63
2024/04/11 08:38:22;;;;;;;11.93;6.85;;;;;;;;;;5472535;26;20002;-57
2024/04/11 08:40:51;;;;;;;10.18;6.93;;;;;;;;;;5485623;26;19998;-55
2024/04/11 08:43:20;;;;;;;12.20;7.40;;;;;;;;;;5482143;26;20009;-55
2024/04/11 08:45:48;;;;;;;12.27;7.00;;;;;;;;;;5476108;26;20006;-58
2024/04/11 08:48:17;;;;;;;14.35;6.55;;;;;;;;;;5483574;26;20368;-61
2024/04/11 08:50:46;;;;;;;10.68;6.40;;;;;;;;;;5484902;26;20002;-58
2024/04/11 08:53:17;;;;;;;11.05;7.05;;;;;;;;;;5468216;26;20469;-57
2024/04/11 08:55:46;;;;;;;12.27;6.53;;;;;;;;;;5488733;26;20002;-57
2024/04/11 08:58:12;;;;;;;11.00;7.22;;;;;;;;;;5469990;26;20111;-59
2024/04/11 09:00:43;;;;;;;10.13;5.88;;;;;;;;;;5488667;26;20013;-55
2024/04/11 09:03:13;;;;;;;12.07;6.97;;;;;;;;;;5477662;26;19994;-55
2024/04/11 09:05:45;;;;;;;12.02;6.53;;;;;;;;;;5480473;26;20003;-55
2024/04/11 09:08:12;;;;;;;10.77;7.30;;;;;;;;;;5478292;26;19998;-59
2024/04/11 09:10:43;;;;;;;11.65;6.75;;;;;;;;;;5488520;26;20002;-57
2024/04/11 09:13:15;;;;;;;10.73;7.25;;;;;;;;;;5488921;26;20009;-56
2024/04/11 09:15:44;;;;;;;12.25;7.88;;;;;;;;;;5488794;26;19994;-57
2024/04/11 09:18:19;;;;;;;12.05;6.65;;;;;;;;;;5488585;26;20010;-58
2024/04/11 09:20:51;;;;;;;11.43;6.35;;;;;;;;;;5489128;26;20002;-59
2024/04/11 09:23:19;;;;;;;12.05;6.70;;;;;;;;;;5489019;26;20013;-57
2024/04/11 09:25:48;;;;;;;10.20;7.18;;;;;;;;;;5488290;26;20325;-54
2024/04/11 09:28:14;;;;;;;13.00;6.43;;;;;;;;;;5487896;26;20005;-57
2024/04/11 09:30:45;;;;;;;12.23;6.80;;;;;;;;;;5488268;26;20009;-58
2024/04/11 09:33:14;;;;;;;14.32;8.82;;;;;;;;;;5488530;26;20083;-59
2024/04/11 09:35:52;;;;;;;11.38;7.50;;;;;;;;;;5488878;26;20037;-56
2024/04/11 09:38:22;;;;;;;10.15;6.85;;;;;;;;;;5489136;26;19994;-57
2024/04/11 09:40:53;;;;;;;11.23;7.13;;;;;;;;;;5488732;26;20033;-57
2024/04/11 09:43:23;;;;;;;11.52;7.07;;;;;;;;;;5481253;26;20002;-58
2024/04/11 09:45:56;;;;;;;12.65;6.28;;;;;;;;;;5485166;26;20044;-57
2024/04/11 09:48:25;;;;;;;13.13;6.57;;;;;;;;;;5485172;26;20002;-56
2024/04/11 09:50:54;;;;;;;10.07;7.13;;;;;;;;;;5483607;26;20002;-58
2024/04/11 09:53:27;;;;;;;9.87;7.03;;;;;;;;;;5483130;26;20078;-59
2024/04/11 09:55:57;;;;;;;11.48;7.32;;;;;;;;;;5483995;26;20022;-58
2024/04/11 09:58:25;;;;;;;11.82;7.60;;;;;;;;;;5478586;26;20002;-54
2024/04/11 10:03:39;;;;;;;10.98;7.10;;;;;;;;;;5486271;26;20450;-57
2024/04/11 10:06:13;;;;;;;10.45;6.85;;;;;;;;;;5485553;26;20014;-52
2024/04/11 10:08:48;;;;;;;9.25;6.18;;;;;;;;;;5471708;26;20007;-58
2024/04/11 10:11:17;;;;;;;8.50;6.03;;;;;;;;;;5469385;26;20453;-59
2024/04/11 10:13:49;;;;;;;10.02;6.72;;;;;;;;;;5466217;26;20002;-60
2024/04/11 10:16:21;;;;;;;10.75;6.95;;;;;;;;;;5477218;26;20437;-59
2024/04/11 10:19:00;;;;;;;9.23;7.28;;;;;;;;;;5473386;26;20020;-59
2024/04/11 10:21:27;;;;;;;10.15;6.20;;;;;;;;;;5486842;26;20449;-56
2024/04/11 10:23:58;;;;;;;8.02;5.35;;;;;;;;;;5487069;26;20006;-60
2024/04/11 10:26:32;;;;;;;11.02;5.47;;;;;;;;;;5486800;26;20037;-58
2024/04/11 10:29:01;;;;;;;7.95;5.82;;;;;;;;;;5475428;26;20050;-59
2024/04/11 10:31:32;;;;;;;10.60;6.28;;;;;;;;;;5480424;26;20015;-59
2024/04/11 10:34:10;;;;;;;8.43;5.78;;;;;;;;;;5483407;26;20006;-59
2024/04/11 10:36:37;;;;;;;8.60;5.95;;;;;;;;;;5482986;26;20002;-58
2024/04/11 10:39:08;;;;;;;14.30;8.95;;;;;;;;;;5479226;26;20010;-59
2024/04/11 10:41:34;;;;;;;10.50;7.50;;;;;;;;;;5478285;26;20022;-59
2024/04/11 10:44:05;;;;;;;9.30;7.22;;;;;;;;;;5467942;26;20310;-57
2024/04/11 10:46:32;;;;;;;9.48;6.65;;;;;;;;;;5474449;26;20006;-58
2024/04/11 10:49:12;;;;;;;12.18;7.05;;;;;;;;;;5479674;26;20009;-64
2024/04/11 10:51:38;;;;;;;9.73;7.38;;;;;;;;;;5487671;26;20327;-58
2024/04/11 10:54:12;;;;;;;10.30;6.68;;;;;;;;;;5482175;26;20034;-59
2024/04/11 10:56:41;;;;;;;9.45;6.65;;;;;;;;;;5475281;26;20038;-59
2024/04/11 10:59:14;;;;;;;10.00;6.70;;;;;;;;;;5471328;26;20006;-59
2024/04/11 11:01:47;;;;;;;10.52;5.55;;;;;;;;;;5475285;26;20349;-59
2024/04/11 11:04:19;;;;;;;10.13;6.50;;;;;;;;;;5473796;26;20022;-58
2024/04/11 11:06:51;;;;;;;10.40;6.75;;;;;;;;;;5476622;26;20002;-57
2024/04/11 11:09:25;;;;;;;8.68;6.25;;;;;;;;;;5472795;26;20430;-59
2024/04/11 11:11:54;;;;;;;9.23;6.60;;;;;;;;;;5486520;26;20013;-59
2024/04/11 11:14:25;;;;;;;10.38;6.70;;;;;;;;;;5482438;26;20469;-64
2024/04/11 11:16:51;;;;;;;11.65;7.97;;;;;;;;;;5468730;26;20018;-58
2024/04/11 11:19:22;;;;;;;9.25;6.72;;;;;;;;;;5469318;26;20002;-55
2024/04/11 11:21:50;;;;;;;10.02;7.03;;;;;;;;;;5471402;26;20054;-56
2024/04/11 11:24:26;;;;;;;9.77;6.55;;;;;;;;;;5479061;26;19998;-55
2024/04/11 11:26:55;;;;;;;9.57;6.40;;;;;;;;;;5465552;26;20002;-59
2024/04/11 11:29:26;;;;;;;10.00;5.90;;;;;;;;;;5473583;26;20106;-58
2024/04/11 11:31:57;;;;;;;9.35;6.53;;;;;;;;;;5486327;26;20074;-59
2024/04/11 11:34:30;;;;;;;9.50;6.72;;;;;;;;;;5486583;26;19998;-59
2024/04/11 11:36:59;;;;;;;9.88;7.38;;;;;;;;;;5483563;26;20006;-59
2024/04/11 11:39:33;;;;;;;10.25;7.30;;;;;;;;;;5486673;26;19994;-58
2024/04/11 11:42:08;;;;;;;7.95;5.80;;;;;;;;;;5484415;26;20009;-56
2024/04/11 11:45:05;;;;;;;10.55;6.40;;;;;;;;;;5486403;26;20013;-59
2024/04/11 11:47:33;;;;;;;7.40;5.70;;;;;;;;;;5479784;26;19998;-59
2024/04/11 11:50:07;;;;;;;9.32;6.43;;;;;;;;;;5486630;26;20026;-58
2024/04/11 11:52:37;;;;;;;9.80;6.32;;;;;;;;;;5486099;26;19999;-59
2024/04/11 11:55:09;;;;;;;11.80;7.77;;;;;;;;;;5486486;26;20009;-59
2024/04/11 11:57:39;;;;;;;9.50;6.15;;;;;;;;;;5485753;26;20453;-59
2024/04/11 12:00:19;;;;;;;10.82;7.20;;;;;;;;;;5486298;26;20002;-58
2024/04/11 12:02:50;;;;;;;9.48;5.95;;;;;;;;;;5485932;26;20003;-58
2024/04/11 12:05:23;;;;;;;10.05;6.13;;;;;;;;;;5475653;26;20552;-59
2024/04/11 12:07:52;;;;;;;11.25;6.38;;;;;;;;;;5486108;26;19998;-60
2024/04/11 12:10:29;;;;;;;7.20;5.32;;;;;;;;;;5486227;26;19999;-59
2024/04/11 12:13:10;;;;;;;8.57;6.30;;;;;;;;;;5485724;26;19998;-58
2024/04/11 12:15:40;;;;;;;8.30;6.13;;;;;;;;;;5485510;26;19998;-59
2024/04/11 12:18:11;;;;;;;10.30;6.65;;;;;;;;;;5485956;26;20377;-57
2024/04/11 12:20:41;;;;;;;17.88;7.25;;;;;;;;;;5485508;26;20456;-56
2024/04/11 12:23:07;;;;;;;8.27;5.07;;;;;;;;;;5485633;26;19994;-57
2024/04/11 12:25:38;;;;;;;8.00;6.00;;;;;;;;;;5485236;26;20009;-59
2024/04/11 12:28:09;;;;;;;7.68;5.60;;;;;;;;;;5486033;26;20071;-59
2024/04/11 12:30:40;;;;;;;6.88;5.63;;;;;;;;;;5485790;26;20013;-56
2024/04/11 12:33:08;;;;;;;8.77;5.80;;;;;;;;;;5485312;26;20013;-54
2024/04/11 12:35:45;;;;;;;9.05;6.45;;;;;;;;;;5485222;26;20489;-59
2024/04/11 12:38:14;;;;;;;7.55;5.97;;;;;;;;;;5477341;26;20002;-53
2024/04/11 12:40:48;;;;;;;8.93;5.82;;;;;;;;;;5489004;26;20013;-59
2024/04/11 12:43:15;;;;;;;7.53;5.85;;;;;;;;;;5477905;26;20458;-59
2024/04/11 12:45:51;;;;;;;7.57;5.68;;;;;;;;;;5488801;26;20038;-59
2024/04/11 12:48:20;;;;;;;8.75;6.38;;;;;;;;;;5478531;26;19994;-60
2024/04/11 12:50:50;;;;;;;8.27;5.97;;;;;;;;;;5488840;26;20355;-59
2024/04/11 12:53:21;;;;;;;7.63;5.75;;;;;;;;;;5488884;26;20434;-59
2024/04/11 12:55:52;;;;;;;9.18;5.93;;;;;;;;;;5488328;26;20445;-56
2024/04/11 12:58:20;;;;;;;7.85;6.15;;;;;;;;;;5488829;26;20330;-57
2024/04/11 13:00:57;;;;;;;6.80;5.28;;;;;;;;;;5488676;26;20047;-57
2024/04/11 13:03:34;;;;;;;8.13;5.72;;;;;;;;;;5488714;26;20438;-56
2024/04/11 13:06:07;;;;;;;8.40;5.00;;;;;;;;;;5488345;26;19998;-57
2024/04/11 13:08:33;;;;;;;8.07;5.68;;;;;;;;;;5488902;26;20012;-57
2024/04/11 13:11:09;;;;;;;9.65;5.43;;;;;;;;;;5488699;26;19998;-55
2024/04/11 13:13:38;;;;;;;7.68;5.35;;;;;;;;;;5488603;26;20394;-57
2024/04/11 13:16:09;;;;;;;7.57;5.50;;;;;;;;;;5488585;26;20006;-59
2024/04/11 13:18:36;;;;;;;9.55;6.35;;;;;;;;;;5489278;26;20034;-58
2024/04/11 13:21:13;;;;;;;9.30;5.78;;;;;;;;;;5489053;26;20013;-59
2024/04/11 13:23:42;;;;;;;7.65;5.25;;;;;;;;;;5488566;26;20024;-59
2024/04/11 13:26:16;;;;;;;14.15;6.13;;;;;;;;;;5489096;26;19994;-59
2024/04/11 13:28:49;;;;;;;9.20;5.75;;;;;;;;;;5488764;26;19998;-58
2024/04/11 13:31:19;;;;;;;9.98;5.90;;;;;;;;;;5476235;26;19998;-60
2024/04/11 13:33:48;;;;;;;9.35;6.18;;;;;;;;;;5488265;26;20010;-58
2024/04/11 13:36:16;;;;;;;8.43;5.95;;;;;;;;;;5475587;26;19998;-58
2024/04/11 13:38:49;;;;;;;8.82;7.50;;;;;;;;;;5488019;26;20010;-59
2024/04/11 13:44:02;;;;;;;10.63;7.50;;;;;;;;;;5487818;26;20021;-59
2024/04/11 13:46:34;;;;;;;9.52;5.90;;;;;;;;;;5487990;26;20446;-60
2024/04/11 13:49:20;;;;;;;9.60;7.18;;;;;;;;;;5487120;26;20030;-59
2024/04/11 13:51:52;;;;;;;8.52;6.00;;;;;;;;;;5488388;26;20145;-59
2024/04/11 13:54:20;;;;;;;10.82;7.28;;;;;;;;;;5476427;26;20349;-60
2024/04/11 13:56:59;;;;;;;9.27;6.22;;;;;;;;;;5487630;26;20039;-60
2024/04/11 13:59:28;;;;;;;8.50;6.47;;;;;;;;;;5478167;26;20002;-60
2024/04/11 14:01:59;;;;;;;8.55;6.47;;;;;;;;;;5487390;26;20002;-58
2024/04/11 14:04:46;;;;;;;10.80;6.72;;;;;;;;;;5487763;26;20359;-59
2024/04/11 14:07:17;;;;;;;9.98;6.57;;;;;;;;;;5487945;26;20449;-60
2024/04/11 14:09:44;;;;;;;9.05;6.93;;;;;;;;;;5488035;26;19994;-58
2024/04/11 14:12:16;;;;;;;10.20;7.55;;;;;;;;;;5488313;26;20338;-55
2024/04/11 14:14:42;;;;;;;9.32;6.82;;;;;;;;;;5488125;26;20009;-60
2024/04/11 14:17:22;;;;;;;8.73;6.45;;;;;;;;;;5488034;26;20358;-60
2024/04/11 14:19:52;;;;;;;8.70;6.70;;;;;;;;;;5487483;26;20315;-60
2024/04/11 14:22:41;;;;;;;10.68;7.30;;;;;;;;;;5487802;26;20028;-59
2024/04/11 14:28:00;;;;;;;10.27;7.40;;;;;;;;;;5490228;26;20017;-56
2024/04/11 14:30:26;;;;;;;8.90;7.20;;;;;;;;;;5487879;26;20456;-59
2024/04/11 14:33:30;;;;;;;8.77;6.22;;;;;;;;;;5487325;26;20002;-60
2024/04/11 14:38:48;;;;;;;9.75;6.70;;;;;;;;;;5475109;26;20002;-60
2024/04/11 14:41:16;;;;;;;8.35;7.18;;;;;;;;;;5473293;26;20009;-53
2024/04/11 14:43:49;;;;;;;9.73;7.13;;;;;;;;;;5487189;26;20009;-60
2024/04/11 14:46:15;;;;;;;9.00;6.60;;;;;;;;;;5486950;26;20015;-58
2024/04/11 14:48:44;;;;;;;10.20;7.10;;;;;;;;;;5487538;26;20014;-60
2024/04/11 14:51:15;;;;;;;9.60;7.65;;;;;;;;;;5487106;26;20430;-60
2024/04/11 14:53:46;;;;;;;8.23;6.20;;;;;;;;;;5487213;26;19998;-60
2024/04/11 14:56:18;;;;;;;9.68;6.85;;;;;;;;;;5473108;26;20009;-60
2024/04/11 14:58:53;;;;;;;8.38;6.93;;;;;;;;;;5486185;26;19999;-58
2024/04/11 15:01:30;;;;;;;9.73;6.72;;;;;;;;;;5474366;26;20013;-60
2024/04/11 15:04:04;;;;;;;8.07;6.80;;;;;;;;;;5486484;26;20002;-60